createdAt,value
2023-01-19T00:01:53.088Z,1.70
2023-01-19T00:04:21.606Z,1.70
2023-01-19T00:06:50.252Z,1.70
2023-01-19T00:09:18.776Z,1.70
2023-01-19T00:11:48.722Z,1.70
2023-01-19T00:14:17.172Z,1.80
2023-01-19T00:16:45.801Z,1.80
2023-01-19T00:19:14.256Z,1.70
2023-01-19T00:21:42.952Z,1.80
2023-01-19T00:24:11.523Z,1.80
2023-01-19T00:26:42.906Z,1.90
2023-01-19T00:29:13.246Z,1.90
2023-01-19T00:31:42.060Z,1.90
2023-01-19T00:34:10.440Z,2.00
2023-01-19T00:36:39.109Z,1.90
2023-01-19T00:39:07.682Z,2.00
2023-01-19T00:41:53.357Z,1.90
2023-01-19T00:44:23.168Z,1.90
2023-01-19T00:46:51.768Z,1.80
2023-01-19T00:49:20.382Z,1.80
2023-01-19T00:51:48.890Z,1.80
2023-01-19T00:54:17.418Z,1.90
2023-01-19T00:56:46.029Z,1.80
2023-01-19T00:59:14.606Z,1.90
2023-01-19T01:01:45.040Z,1.90
2023-01-19T01:04:14.849Z,1.90
2023-01-19T01:06:43.453Z,1.90
2023-01-19T01:09:12.934Z,1.90
2023-01-19T01:11:42.177Z,1.90
2023-01-19T01:14:11.640Z,1.90
2023-01-19T01:16:40.631Z,1.90
2023-01-19T01:19:10.614Z,1.90
2023-01-19T01:21:39.233Z,1.80
2023-01-19T01:24:08.099Z,1.90
2023-01-19T01:26:36.683Z,1.80
2023-01-19T01:29:05.999Z,1.80
2023-01-19T01:31:34.526Z,1.80
2023-01-19T01:34:03.079Z,1.80
2023-01-19T01:36:33.575Z,1.80
2023-01-19T01:39:02.171Z,1.80
2023-01-19T01:41:30.981Z,1.80
2023-01-19T01:44:01.702Z,1.80
2023-01-19T01:46:32.508Z,1.70
2023-01-19T01:49:04.353Z,1.70
2023-01-19T01:51:35.752Z,1.70
2023-01-19T01:54:09.580Z,1.70
2023-01-19T01:56:40.251Z,1.70
2023-01-19T01:59:10.448Z,1.70
2023-01-19T02:02:05.257Z,1.70
2023-01-19T02:04:34.011Z,1.70
2023-01-19T02:07:21.118Z,1.60
2023-01-19T02:10:07.438Z,1.50
2023-01-19T02:12:53.633Z,1.50
2023-01-19T02:15:22.324Z,1.50
2023-01-19T02:17:50.954Z,1.60
2023-01-19T02:20:21.081Z,1.50
2023-01-19T02:22:52.314Z,1.50
2023-01-19T02:25:23.126Z,2.80
2023-01-19T02:27:53.448Z,1.60
2023-01-19T02:30:22.087Z,1.50
2023-01-19T02:32:50.712Z,1.50
2023-01-19T02:35:20.183Z,1.40
2023-01-19T02:37:49.084Z,3.00
2023-01-19T02:40:20.392Z,1.50
2023-01-19T02:42:51.133Z,1.60
2023-01-19T02:45:21.918Z,1.60
2023-01-19T02:47:51.455Z,1.70
2023-01-19T02:50:38.803Z,1.60
2023-01-19T02:53:18.825Z,1.70
2023-01-19T02:55:49.352Z,1.60
2023-01-19T02:58:22.988Z,1.60
2023-01-19T03:00:54.434Z,1.60
2023-01-19T03:03:27.276Z,1.60
2023-01-19T03:05:58.982Z,1.60
2023-01-19T03:08:34.225Z,1.70
2023-01-19T03:11:04.354Z,1.70
2023-01-19T03:13:41.808Z,1.70
2023-01-19T03:16:14.158Z,1.60
2023-01-19T03:18:44.827Z,1.60
2023-01-19T03:21:14.173Z,1.70
2023-01-19T03:23:42.959Z,1.60
2023-01-19T03:26:13.246Z,1.70
2023-01-19T03:28:44.243Z,1.70
2023-01-19T03:31:15.275Z,1.70
2023-01-19T03:33:46.726Z,1.70
2023-01-19T03:36:17.819Z,1.70
2023-01-19T03:38:47.879Z,1.70
2023-01-19T03:41:18.711Z,1.70
2023-01-19T03:43:49.850Z,1.70
2023-01-19T03:46:19.130Z,1.70
2023-01-19T03:48:48.372Z,1.70
2023-01-19T03:51:17.640Z,1.70
2023-01-19T03:53:46.359Z,1.70
2023-01-19T03:56:19.150Z,1.70
2023-01-19T03:58:49.003Z,1.70
2023-01-19T04:01:18.219Z,1.70
2023-01-19T04:03:47.328Z,1.70
2023-01-19T04:06:16.138Z,1.60
2023-01-19T04:08:44.837Z,1.60
2023-01-19T04:11:13.338Z,1.60
2023-01-19T04:13:41.914Z,1.70
2023-01-19T04:16:12.194Z,1.70
2023-01-19T04:18:42.207Z,1.70
2023-01-19T04:21:12.827Z,1.70
2023-01-19T04:23:41.403Z,1.70
2023-01-19T04:26:10.208Z,1.70
2023-01-19T04:28:39.034Z,1.70
2023-01-19T04:31:07.916Z,1.70
2023-01-19T04:33:37.906Z,1.70
2023-01-19T04:36:07.333Z,1.70
2023-01-19T04:38:36.089Z,1.70
2023-01-19T04:41:04.717Z,1.70
2023-01-19T04:43:33.903Z,1.70
2023-01-19T04:46:02.528Z,1.80
2023-01-19T04:48:31.055Z,1.80
2023-01-19T04:51:01.057Z,1.80
2023-01-19T04:53:29.653Z,1.80
2023-01-19T04:55:59.730Z,1.80
2023-01-19T04:58:28.553Z,1.90
2023-01-19T05:00:57.105Z,1.90
2023-01-19T05:03:26.655Z,1.90
2023-01-19T05:05:55.419Z,1.90
2023-01-19T05:08:25.719Z,1.90
2023-01-19T05:10:54.296Z,1.90
2023-01-19T05:13:22.966Z,1.90
2023-01-19T05:15:51.604Z,1.90
2023-01-19T05:18:20.232Z,1.90
2023-01-19T05:20:48.870Z,1.80
2023-01-19T05:23:17.434Z,1.80
2023-01-19T05:25:47.417Z,1.90
2023-01-19T05:28:16.916Z,1.90
2023-01-19T05:30:45.446Z,2.00
2023-01-19T05:33:14.064Z,2.00
2023-01-19T05:35:42.696Z,1.90
2023-01-19T05:38:11.308Z,1.90
2023-01-19T05:40:39.935Z,1.90
2023-01-19T05:43:10.383Z,1.90
2023-01-19T05:45:39.297Z,1.90
2023-01-19T05:48:09.384Z,1.90
2023-01-19T05:50:38.168Z,1.90
2023-01-19T05:53:06.685Z,1.90
2023-01-19T05:55:35.348Z,1.90
2023-01-19T05:58:03.851Z,1.90
2023-01-19T06:00:33.821Z,2.00
2023-01-19T06:03:02.958Z,1.90
2023-01-19T06:05:31.896Z,1.90
2023-01-19T06:08:00.621Z,1.90
2023-01-19T06:10:29.192Z,1.90
2023-01-19T06:12:57.870Z,1.90
2023-01-19T06:15:26.664Z,1.90
2023-01-19T06:17:56.495Z,1.90
2023-01-19T06:20:25.197Z,1.90
2023-01-19T06:22:53.689Z,1.90
2023-01-19T06:25:22.327Z,1.90
2023-01-19T06:27:50.863Z,1.90
2023-01-19T06:30:19.799Z,1.90
2023-01-19T06:32:48.650Z,1.90
2023-01-19T06:35:19.478Z,1.90
2023-01-19T06:37:48.135Z,1.90
2023-01-19T06:40:16.735Z,1.90
2023-01-19T06:42:45.496Z,1.90
2023-01-19T06:45:14.153Z,1.90
2023-01-19T06:47:43.393Z,1.90
2023-01-19T06:50:12.293Z,1.90
2023-01-19T06:52:42.813Z,1.90
2023-01-19T06:55:12.222Z,1.90
2023-01-19T06:57:41.072Z,1.90
2023-01-19T07:00:11.790Z,1.90
2023-01-19T07:02:42.611Z,1.90
2023-01-19T07:05:14.472Z,2.00
2023-01-19T07:07:45.456Z,2.00
2023-01-19T07:10:16.472Z,2.00
2023-01-19T07:12:46.584Z,2.00
2023-01-19T07:15:15.948Z,1.90
2023-01-19T07:17:44.745Z,2.00
2023-01-19T07:20:14.553Z,2.00
2023-01-19T07:22:45.802Z,2.00
2023-01-19T07:25:14.547Z,2.00
2023-01-19T07:27:45.123Z,1.90
2023-01-19T07:30:16.198Z,1.90
2023-01-19T07:32:45.064Z,1.90
2023-01-19T07:35:14.607Z,1.90
2023-01-19T07:37:44.544Z,1.90
2023-01-19T07:40:13.544Z,2.00
2023-01-19T07:42:46.835Z,1.90
2023-01-19T07:45:16.775Z,1.90
2023-01-19T07:47:45.820Z,1.90
2023-01-19T07:50:14.806Z,1.90
2023-01-19T07:52:44.768Z,2.00
2023-01-19T07:55:13.448Z,2.00
2023-01-19T07:57:42.072Z,2.00
2023-01-19T08:00:11.115Z,2.00
2023-01-19T08:02:42.624Z,2.00
2023-01-19T08:05:11.314Z,2.10
2023-01-19T08:07:40.010Z,2.10
2023-01-19T08:10:11.022Z,2.10
2023-01-19T08:12:39.649Z,2.10
2023-01-19T08:15:08.851Z,2.10
2023-01-19T08:17:37.700Z,2.10
2023-01-19T08:20:07.889Z,2.10
2023-01-19T08:22:37.531Z,2.10
2023-01-19T08:25:06.347Z,2.10
2023-01-19T08:27:37.463Z,2.20
2023-01-19T08:30:06.490Z,2.20
2023-01-19T08:32:36.039Z,2.10
2023-01-19T08:35:04.726Z,2.20
2023-01-19T08:37:34.362Z,2.20
2023-01-19T08:40:02.966Z,2.20
2023-01-19T08:42:32.891Z,2.20
2023-01-19T08:45:02.930Z,2.20
2023-01-19T08:47:32.139Z,2.30
2023-01-19T08:50:01.763Z,2.40
2023-01-19T08:52:30.759Z,2.30
2023-01-19T08:55:00.623Z,2.30
2023-01-19T08:57:29.352Z,2.30
2023-01-19T08:59:57.888Z,2.30
2023-01-19T09:02:28.322Z,2.40
2023-01-19T09:04:57.114Z,2.40
2023-01-19T09:07:25.993Z,2.40
2023-01-19T09:09:55.693Z,2.40
2023-01-19T09:12:24.331Z,2.40
2023-01-19T09:14:52.999Z,2.40
2023-01-19T09:17:22.501Z,2.50
2023-01-19T09:19:52.414Z,2.50
2023-01-19T09:22:21.054Z,2.60
2023-01-19T09:24:49.576Z,2.60
2023-01-19T09:27:18.736Z,2.60
2023-01-19T09:29:52.571Z,2.60
2023-01-19T09:32:23.012Z,2.60
2023-01-19T09:34:54.027Z,2.60
2023-01-19T09:37:22.547Z,2.60
2023-01-19T09:39:53.078Z,2.70
2023-01-19T09:42:25.423Z,2.70
2023-01-19T09:44:54.939Z,2.80
2023-01-19T09:47:25.998Z,2.80
2023-01-19T09:49:59.591Z,2.90
2023-01-19T09:52:28.492Z,2.90
2023-01-19T09:54:59.104Z,2.90
2023-01-19T09:57:30.145Z,2.80
2023-01-19T09:59:59.918Z,2.90
2023-01-19T10:02:36.889Z,2.90
2023-01-19T10:05:18.478Z,2.90
2023-01-19T10:07:58.438Z,2.80
2023-01-19T10:10:29.423Z,2.80
2023-01-19T10:13:03.977Z,2.80
2023-01-19T10:15:39.156Z,2.80
2023-01-19T10:18:13.150Z,2.90
2023-01-19T10:20:45.069Z,2.90
2023-01-19T10:23:19.995Z,2.90
2023-01-19T10:25:50.645Z,2.80
2023-01-19T10:28:23.115Z,2.90
2023-01-19T10:30:53.802Z,2.90
2023-01-19T10:33:22.598Z,2.90
2023-01-19T10:35:52.795Z,3.00
2023-01-19T10:38:22.431Z,3.00
2023-01-19T10:40:54.540Z,3.00
2023-01-19T10:43:42.244Z,3.00
2023-01-19T10:46:26.777Z,3.00
2023-01-19T10:48:56.730Z,3.00
2023-01-19T10:51:28.111Z,3.00
2023-01-19T10:53:59.132Z,3.00
2023-01-19T10:56:31.498Z,3.00
2023-01-19T10:59:01.067Z,3.00
2023-01-19T11:01:31.402Z,3.00
2023-01-19T11:04:05.827Z,3.00
2023-01-19T11:06:35.899Z,3.10
2023-01-19T11:09:11.830Z,3.10
2023-01-19T11:11:44.352Z,3.20
2023-01-19T11:14:13.896Z,3.20
2023-01-19T11:16:46.675Z,3.20
2023-01-19T11:19:20.223Z,3.20
2023-01-19T11:21:50.197Z,3.20
2023-01-19T11:24:18.783Z,3.20
2023-01-19T11:26:49.056Z,3.20
2023-01-19T11:29:18.891Z,3.20
2023-01-19T11:31:47.608Z,3.20
2023-01-19T11:34:34.954Z,3.30
2023-01-19T11:37:25.971Z,3.20
2023-01-19T11:39:57.456Z,3.20
2023-01-19T11:42:26.794Z,3.20
2023-01-19T11:44:59.679Z,3.30
2023-01-19T11:47:31.610Z,3.20
2023-01-19T11:50:00.892Z,3.20
2023-01-19T11:52:34.784Z,3.30
2023-01-19T11:55:06.740Z,3.20
2023-01-19T11:57:35.338Z,3.20
2023-01-19T12:00:05.916Z,3.20
2023-01-19T12:02:41.981Z,3.20
2023-01-19T12:05:13.684Z,3.20
2023-01-19T12:07:45.222Z,3.20
2023-01-19T12:10:21.656Z,3.50
2023-01-19T12:12:51.099Z,3.20
2023-01-19T12:15:23.487Z,3.20
2023-01-19T12:17:53.691Z,3.20
2023-01-19T12:20:25.398Z,3.10
2023-01-19T12:22:59.810Z,3.20
2023-01-19T12:25:33.306Z,3.10
2023-01-19T12:28:01.949Z,3.10
2023-01-19T12:30:30.847Z,3.10
2023-01-19T12:33:17.216Z,3.10
2023-01-19T12:35:59.711Z,3.20
2023-01-19T12:38:37.061Z,3.10
2023-01-19T12:41:25.953Z,3.10
2023-01-19T12:44:14.602Z,3.10
2023-01-19T12:46:46.029Z,3.10
2023-01-19T12:49:21.103Z,3.00
2023-01-19T12:51:51.818Z,2.90
2023-01-19T12:54:31.657Z,2.90
2023-01-19T12:57:02.096Z,2.80
2023-01-19T12:59:32.313Z,2.80
2023-01-19T13:02:15.828Z,2.80
2023-01-19T13:05:04.485Z,2.80
2023-01-19T13:07:54.234Z,2.80
2023-01-19T13:10:41.511Z,2.80
2023-01-19T13:13:17.847Z,2.70
2023-01-19T13:15:46.807Z,2.70
2023-01-19T13:18:18.758Z,2.70
2023-01-19T13:20:51.127Z,2.60
2023-01-19T13:23:21.768Z,2.70
2023-01-19T13:26:11.083Z,2.70
2023-01-19T13:28:43.273Z,2.70
2023-01-19T13:31:12.486Z,2.70
2023-01-19T13:33:46.182Z,2.60
2023-01-19T13:36:21.361Z,2.60
2023-01-19T13:38:51.267Z,2.60
2023-01-19T13:41:21.882Z,2.60
2023-01-19T13:43:53.887Z,2.70
2023-01-19T13:46:23.183Z,2.60
2023-01-19T13:48:56.724Z,2.60
2023-01-19T13:51:25.505Z,2.60
2023-01-19T13:53:54.883Z,2.70
2023-01-19T13:56:24.527Z,2.70
2023-01-19T13:59:13.880Z,2.70
2023-01-19T14:01:43.868Z,2.60
2023-01-19T14:04:30.512Z,3.10
2023-01-19T14:07:01.861Z,2.50
2023-01-19T14:09:30.749Z,2.60
2023-01-19T14:12:06.637Z,3.00
2023-01-19T14:14:36.735Z,2.70
2023-01-19T14:17:05.575Z,2.70
2023-01-19T14:19:48.523Z,2.70
2023-01-19T14:22:17.726Z,2.70
2023-01-19T14:24:47.960Z,2.90
2023-01-19T14:27:21.338Z,2.80
2023-01-19T14:29:54.837Z,2.80
2023-01-19T14:32:24.545Z,2.90
2023-01-19T14:34:54.630Z,2.50
2023-01-19T14:37:25.062Z,2.60
2023-01-19T14:39:56.525Z,2.60
2023-01-19T14:42:27.552Z,2.40
2023-01-19T14:44:58.532Z,2.90
2023-01-19T14:47:30.334Z,2.60
2023-01-19T14:50:01.750Z,2.50
2023-01-19T14:52:32.503Z,3.00
2023-01-19T14:55:02.873Z,2.60
2023-01-19T14:57:31.567Z,2.50
2023-01-19T15:00:01.617Z,2.50
2023-01-19T15:02:30.268Z,2.50
2023-01-19T15:04:58.936Z,2.50
2023-01-19T15:07:29.509Z,2.50
2023-01-19T15:09:59.774Z,2.50
2023-01-19T15:12:28.988Z,3.20
2023-01-19T15:14:57.835Z,2.50
2023-01-19T15:17:27.834Z,2.80
2023-01-19T15:19:56.902Z,2.50
2023-01-19T15:22:28.102Z,2.90
2023-01-19T15:25:00.162Z,2.50
2023-01-19T15:27:28.982Z,3.00
2023-01-19T15:30:03.750Z,2.60
2023-01-19T15:32:33.683Z,2.50
2023-01-19T15:35:02.254Z,2.50
2023-01-19T15:37:30.837Z,2.40
2023-01-19T15:39:59.376Z,2.40
2023-01-19T15:42:28.097Z,2.40
2023-01-19T15:44:56.794Z,2.40
2023-01-19T15:47:25.341Z,2.40
2023-01-19T15:49:55.335Z,2.40
2023-01-19T15:52:23.883Z,2.40
2023-01-19T15:54:52.425Z,2.40
2023-01-19T15:57:21.222Z,2.40
2023-01-19T15:59:51.410Z,2.50
2023-01-19T16:02:20.285Z,2.40
2023-01-19T16:04:49.759Z,2.40
2023-01-19T16:07:19.893Z,2.40
2023-01-19T16:09:50.072Z,2.30
2023-01-19T16:12:18.809Z,2.30
2023-01-19T16:14:47.517Z,2.30
2023-01-19T16:17:16.194Z,2.30
2023-01-19T16:19:44.731Z,2.20
2023-01-19T16:22:13.498Z,2.30
2023-01-19T16:24:43.374Z,2.30
2023-01-19T16:27:12.411Z,2.30
2023-01-19T16:29:41.068Z,2.30
2023-01-19T16:32:10.070Z,2.40
2023-01-19T16:34:38.742Z,2.30
2023-01-19T16:37:08.356Z,2.30
2023-01-19T16:39:37.035Z,2.40
2023-01-19T16:42:07.066Z,2.30
2023-01-19T16:44:35.682Z,2.40
2023-01-19T16:47:04.484Z,2.30
2023-01-19T16:49:34.210Z,2.30
2023-01-19T16:52:04.029Z,2.40
2023-01-19T16:54:33.058Z,2.30
2023-01-19T16:57:02.391Z,2.30
2023-01-19T16:59:32.547Z,2.50
2023-01-19T17:02:03.124Z,2.60
2023-01-19T17:04:32.027Z,2.20
2023-01-19T17:07:00.801Z,2.20
2023-01-19T17:09:30.057Z,2.10
2023-01-19T17:12:00.226Z,2.10
2023-01-19T17:14:29.178Z,2.70
2023-01-19T17:17:01.449Z,2.20
2023-01-19T17:19:34.740Z,2.20
2023-01-19T17:22:14.384Z,1.90
2023-01-19T17:24:43.713Z,2.20
2023-01-19T17:27:12.456Z,1.90
2023-01-19T17:29:41.246Z,1.00
2023-01-19T17:32:11.278Z,2.20
2023-01-19T17:34:42.807Z,2.00
2023-01-19T17:37:11.485Z,2.00
2023-01-19T17:39:40.087Z,2.00
2023-01-19T17:42:08.908Z,2.00
2023-01-19T17:44:38.511Z,2.00
2023-01-19T17:47:07.187Z,2.00
2023-01-19T17:49:37.235Z,2.00
2023-01-19T17:52:06.187Z,2.00
2023-01-19T17:54:35.128Z,2.00
2023-01-19T17:57:03.728Z,2.10
2023-01-19T17:59:32.737Z,2.10
2023-01-19T18:02:01.495Z,2.10
2023-01-19T18:04:32.205Z,2.00
2023-01-19T18:07:02.272Z,2.10
2023-01-19T18:09:30.976Z,2.10
2023-01-19T18:11:59.677Z,2.10
2023-01-19T18:14:28.424Z,2.10
2023-01-19T18:16:57.095Z,2.10
2023-01-19T18:19:25.655Z,2.10
2023-01-19T18:21:54.366Z,2.10
2023-01-19T18:24:24.317Z,2.10
2023-01-19T18:26:55.619Z,2.10
2023-01-19T18:29:24.431Z,2.10
2023-01-19T18:31:53.212Z,2.10
2023-01-19T18:34:21.855Z,2.00
2023-01-19T18:36:50.429Z,2.00
2023-01-19T18:39:19.986Z,2.00
2023-01-19T18:41:50.004Z,2.00
2023-01-19T18:44:18.654Z,2.00
2023-01-19T18:46:47.235Z,2.00
2023-01-19T18:49:17.203Z,2.10
2023-01-19T18:51:45.957Z,2.00
2023-01-19T18:54:14.677Z,2.00
2023-01-19T18:56:43.262Z,2.00
2023-01-19T18:59:13.165Z,2.00
2023-01-19T19:01:42.178Z,2.00
2023-01-19T19:04:10.975Z,2.00
2023-01-19T19:06:39.632Z,2.00
2023-01-19T19:09:08.449Z,2.00
2023-01-19T19:11:37.215Z,2.10
2023-01-19T19:14:05.964Z,2.00
2023-01-19T19:16:38.579Z,2.00
2023-01-19T19:19:08.582Z,1.90
2023-01-19T19:21:37.292Z,1.90
2023-01-19T19:24:06.665Z,1.90
2023-01-19T19:26:37.308Z,2.00
2023-01-19T19:29:06.129Z,1.90
2023-01-19T19:31:35.974Z,1.80
2023-01-19T19:34:04.631Z,1.90
2023-01-19T19:36:33.511Z,1.90
2023-01-19T19:39:02.366Z,1.90
2023-01-19T19:41:32.346Z,1.70
2023-01-19T19:44:01.132Z,1.80
2023-01-19T19:46:29.715Z,1.80
2023-01-19T19:48:59.692Z,1.80
2023-01-19T19:51:29.410Z,1.70
2023-01-19T19:53:58.877Z,1.70
2023-01-19T19:56:28.537Z,1.70
2023-01-19T19:58:57.809Z,1.60
2023-01-19T20:01:32.049Z,1.70
2023-01-19T20:04:07.172Z,1.60
2023-01-19T20:06:39.186Z,1.60
2023-01-19T20:09:09.245Z,1.60
2023-01-19T20:11:37.998Z,1.50
2023-01-19T20:14:07.741Z,1.50
2023-01-19T20:16:37.036Z,1.50
2023-01-19T20:19:07.364Z,1.40
2023-01-19T20:21:37.408Z,1.50
2023-01-19T20:24:07.188Z,1.50
2023-01-19T20:26:36.441Z,1.50
2023-01-19T20:29:06.920Z,1.50
2023-01-19T20:31:36.906Z,1.40
2023-01-19T20:34:07.881Z,1.40
2023-01-19T20:36:36.848Z,1.30
2023-01-19T20:39:09.551Z,1.30
2023-01-19T20:41:43.577Z,1.30
2023-01-19T20:44:13.078Z,1.30
2023-01-19T20:46:41.781Z,1.30
2023-01-19T20:49:11.757Z,1.20
2023-01-19T20:51:43.454Z,1.20
2023-01-19T20:54:12.490Z,1.30
2023-01-19T20:56:41.782Z,1.20
2023-01-19T20:59:10.359Z,1.30
2023-01-19T21:01:39.882Z,1.20
2023-01-19T21:04:08.892Z,1.10
2023-01-19T21:06:39.549Z,1.10
2023-01-19T21:09:08.991Z,1.00
2023-01-19T21:11:38.401Z,1.00
2023-01-19T21:14:07.673Z,1.00
2023-01-19T21:16:36.546Z,1.00
2023-01-19T21:19:05.374Z,1.00
2023-01-19T21:21:34.046Z,0.90
2023-01-19T21:24:04.477Z,0.90
2023-01-19T21:26:33.705Z,0.90
2023-01-19T21:29:03.583Z,0.90
2023-01-19T21:31:32.290Z,0.80
2023-01-19T21:34:00.820Z,0.90
2023-01-19T21:36:29.480Z,0.90
2023-01-19T21:39:01.016Z,0.90
2023-01-19T21:41:31.676Z,0.90
2023-01-19T21:44:02.003Z,0.90
2023-01-19T21:46:33.085Z,0.90
2023-01-19T21:49:02.585Z,0.80
2023-01-19T21:51:33.531Z,0.80
2023-01-19T21:54:03.485Z,0.80
2023-01-19T21:56:33.633Z,0.90
2023-01-19T21:59:03.687Z,0.90
2023-01-19T22:01:33.897Z,0.90
2023-01-19T22:04:03.882Z,1.00
2023-01-19T22:06:32.424Z,1.00
2023-01-19T22:09:01.185Z,1.00
2023-01-19T22:11:31.140Z,0.90
2023-01-19T22:14:02.086Z,1.00
2023-01-19T22:16:31.078Z,1.00
2023-01-19T22:19:01.271Z,1.10
2023-01-19T22:21:31.150Z,1.00
2023-01-19T22:24:00.304Z,1.00
2023-01-19T22:26:29.479Z,1.10
2023-01-19T22:28:59.096Z,1.10
2023-01-19T22:31:30.858Z,1.10
2023-01-19T22:34:00.536Z,1.10
2023-01-19T22:36:30.067Z,1.10
2023-01-19T22:38:59.501Z,1.20
2023-01-19T22:41:29.282Z,1.10
2023-01-19T22:43:59.369Z,1.10
2023-01-19T22:46:30.933Z,1.10
2023-01-19T22:49:00.058Z,1.10
2023-01-19T22:51:29.369Z,1.10
2023-01-19T22:53:58.105Z,1.10
2023-01-19T22:56:27.583Z,1.10
2023-01-19T22:58:56.742Z,1.10
2023-01-19T23:01:26.093Z,1.10
2023-01-19T23:03:56.540Z,1.20
2023-01-19T23:06:28.030Z,1.20
2023-01-19T23:08:57.620Z,1.10
2023-01-19T23:11:28.300Z,1.10
2023-01-19T23:13:56.917Z,1.10
2023-01-19T23:16:26.057Z,1.10
2023-01-19T23:18:56.603Z,1.10
2023-01-19T23:21:26.299Z,1.10
2023-01-19T23:23:55.360Z,1.10
2023-01-19T23:26:24.573Z,1.20
2023-01-19T23:28:54.988Z,1.20
2023-01-19T23:31:24.700Z,1.30
2023-01-19T23:33:54.590Z,1.30
2023-01-19T23:36:26.024Z,1.20
2023-01-19T23:38:55.387Z,1.20
2023-01-19T23:41:24.833Z,1.10
2023-01-19T23:43:54.384Z,1.10
2023-01-19T23:46:22.998Z,1.20
2023-01-19T23:48:51.859Z,1.20
2023-01-19T23:51:21.458Z,1.20
2023-01-19T23:53:51.573Z,1.10
2023-01-19T23:56:20.923Z,1.10
2023-01-19T23:58:55.486Z,1.10
